Time;durP1;ratioP1;P1;durP2;ratioP2;P2;SDS_P1;SDS_P2;PMS_P1;PMS_P2;Temp;Humidity;BMP_temperature;BMP_pressure;BME280_temperature;BME280_humidity;BME280_pressure;Samples;Min_cycle;Max_cycle;Signal;HPM_P1;HPM_P2
2021/12/18 00:01:17;;;;;;;;;;;;;;;1.97;94.24;99307.97;5095625;28;19931;-80
2021/12/18 00:03:42;;;;;;;;;;;;;;;1.95;94.39;99317.13;5111242;28;19919;-87
2021/12/18 00:06:08;;;;;;;;;;;;;;;1.93;94.28;99317.34;5102945;28;20301;-85
2021/12/18 00:08:34;;;;;;;;;;;;;;;1.95;94.34;99323.19;5107039;28;19947;-84
2021/12/18 00:10:59;;;;;;;;;;;;;;;1.96;94.21;99326.66;5101886;28;20402;-84
2021/12/18 00:13:24;;;;;;;;;;;;;;;1.95;94.57;99322.41;5111216;28;20037;-83
2021/12/18 00:15:50;;;;;;;;;;;;;;;1.96;94.30;99324.81;5112372;28;20001;-85
2021/12/18 00:18:15;;;;;;;;;;;;;;;1.93;94.22;99325.25;5109165;28;20018;-85
2021/12/18 00:20:40;;;;;;;;;;;;;;;1.91;94.82;99316.75;5095663;28;19919;-85
2021/12/18 00:23:06;;;;;;;;;;;;;;;1.93;94.99;99317.34;5113616;28;19922;-86
2021/12/18 00:25:32;;;;;;;;;;;;;;;1.92;94.62;99326.28;5113153;27;20007;-86
2021/12/18 00:27:57;;;;;;;;;;;;;;;1.95;94.94;99322.41;5103938;28;19955;-85
2021/12/18 00:30:22;;;;;;;;;;;;;;;1.96;94.95;99322.19;5101868;28;19934;-88
2021/12/18 00:32:48;;;;;;;;;;;;;;;1.99;94.52;99321.78;5097192;28;19924;-86
2021/12/18 00:35:13;;;;;;;;;;;;;;;2.01;94.69;99324.19;5097491;28;19963;-87
2021/12/18 00:37:39;;;;;;;;;;;;;;;2.01;94.07;99313.63;5100741;27;19926;-92
2021/12/18 00:40:09;;;;;;;;;;;;;;;2.03;94.90;99315.03;5108617;28;19919;-88
2021/12/18 00:45:10;;;;;;;;;;;;;;;2.08;94.70;99306.50;5114653;28;19920;-84
2021/12/18 00:47:36;;;;;;;;;;;;;;;2.10;94.68;99309.72;5112286;28;19919;-86
2021/12/18 00:50:01;;;;;;;;;;;;;;;2.07;94.58;99300.38;5097119;28;20327;-85
2021/12/18 00:52:26;;;;;;;;;;;;;;;2.08;94.76;99298.56;5097925;28;19945;-92
2021/12/18 00:54:52;;;;;;;;;;;;;;;2.08;94.39;99302.00;5101120;28;19923;-91
2021/12/18 00:57:17;;;;;;;;;;;;;;;2.11;94.73;99302.63;5100346;28;19969;-91
2021/12/18 00:59:43;;;;;;;;;;;;;;;2.07;94.15;99310.94;5099020;28;19920;-89
2021/12/18 01:02:08;;;;;;;;;;;;;;;2.08;94.62;99303.84;5097785;28;19919;-87
2021/12/18 01:04:34;;;;;;;;;;;;;;;2.09;94.76;99300.19;5099072;28;20489;-87
2021/12/18 01:06:59;;;;;;;;;;;;;;;2.06;94.47;99297.97;5107518;28;19924;-86
2021/12/18 01:09:43;;;;;;;;;;;;;;;2.06;94.42;99290.06;5097930;28;19998;-89
2021/12/18 01:12:09;;;;;;;;;;;;;;;2.06;94.64;99290.88;5112370;27;19927;-82
2021/12/18 01:25:01;;;;;;;;;;;;;;;1.98;94.94;99290.31;5114830;27;20348;-79
2021/12/18 01:27:26;;;;;;;;;;;;;;;1.94;94.48;99289.94;5100317;27;19927;-80
2021/12/18 01:29:52;;;;;;;;;;;;;;;1.93;95.30;99285.69;5107065;28;19923;-81
2021/12/18 01:32:17;;;;;;;;;;;;;;;1.92;94.91;99276.97;5096385;28;19919;-84
2021/12/18 01:34:43;;;;;;;;;;;;;;;1.92;95.11;99286.72;5095590;28;20165;-85
2021/12/18 01:37:09;;;;;;;;;;;;;;;1.92;95.49;99286.72;5096277;28;19916;-83
2021/12/18 01:39:34;;;;;;;;;;;;;;;1.94;94.94;99284.66;5112254;27;20362;-81
2021/12/18 01:52:34;;;;;;;;;;;;;;;1.94;94.43;99281.22;5114119;28;19958;-83
2021/12/18 01:55:00;;;;;;;;;;;;;;;1.87;95.45;99284.72;5103506;28;19947;-86
2021/12/18 01:57:25;;;;;;;;;;;;;;;1.86;95.66;99279.66;5103957;27;19934;-87
2021/12/18 01:59:51;;;;;;;;;;;;;;;1.83;95.68;99290.63;5106115;28;19919;-86
2021/12/18 02:02:17;;;;;;;;;;;;;;;1.79;95.97;99286.81;5095858;28;19916;-87
2021/12/18 02:04:42;;;;;;;;;;;;;;;1.76;96.01;99280.91;5095204;28;19920;-87
2021/12/18 02:07:08;;;;;;;;;;;;;;;1.78;96.11;99282.53;5097407;27;19926;-79
2021/12/18 02:12:11;;;;;;;;;;;;;;;1.75;96.48;99281.13;5123156;27;19959;-85
2021/12/18 02:20:21;;;;;;;;;;;;;;;1.72;96.46;99295.56;5127355;27;19927;-86
2021/12/18 02:22:47;;;;;;;;;;;;;;;1.73;96.76;99293.72;5095400;27;19971;-85
2021/12/18 02:25:12;;;;;;;;;;;;;;;1.73;97.00;99294.53;5107250;27;20293;-85
2021/12/18 02:27:37;;;;;;;;;;;;;;;1.75;96.90;99299.59;5110441;27;20419;-84
2021/12/18 02:30:04;;;;;;;;;;;;;;;1.68;96.56;99293.56;5114625;27;19919;-84
2021/12/18 02:32:29;;;;;;;;;;;;;;;1.68;97.27;99285.63;5115615;27;19921;-83
2021/12/18 02:34:58;;;;;;;;;;;;;;;1.68;97.44;99296.97;5110968;28;19920;-80
2021/12/18 02:37:24;;;;;;;;;;;;;;;1.69;97.46;99290.69;5094770;28;19920;-88
2021/12/18 02:42:41;;;;;;;;;;;;;;;1.70;96.88;99297.59;5061243;28;19923;-84
2021/12/18 02:45:07;;;;;;;;;;;;;;;1.69;96.61;99295.16;5114395;27;19915;-85
2021/12/18 02:47:32;;;;;;;;;;;;;;;1.68;97.21;99289.06;5106747;28;19922;-84
2021/12/18 02:49:58;;;;;;;;;;;;;;;1.69;96.54;99292.53;5094066;28;19971;-87
2021/12/18 02:52:30;;;;;;;;;;;;;;;1.67;96.89;99284.03;5095094;28;19927;-87
2021/12/18 02:54:55;;;;;;;;;;;;;;;1.70;96.79;99287.03;5093918;28;19920;-83
2021/12/18 02:57:20;;;;;;;;;;;;;;;1.72;96.58;99284.19;5099231;27;19922;-86
2021/12/18 02:59:47;;;;;;;;;;;;;;;1.73;96.82;99293.72;5098100;28;20351;-85
2021/12/18 03:02:14;;;;;;;;;;;;;;;1.75;97.09;99292.47;5102683;28;20060;-91
2021/12/18 03:04:41;;;;;;;;;;;;;;;1.76;96.87;99288.84;5096209;28;20128;-91
2021/12/18 03:07:09;;;;;;;;;;;;;;;1.77;96.59;99294.94;5109476;27;19920;-93
2021/12/18 03:18:57;;;;;;;;;;;;;;;1.76;96.76;99291.47;5099252;28;20004;-92
2021/12/18 03:26:13;;;;;;;;;;;;;;;1.79;96.95;99321.09;5113894;28;20032;-93
2021/12/18 03:28:38;;;;;;;;;;;;;;;1.75;96.08;99316.22;5095430;28;19915;-91
2021/12/18 03:31:03;;;;;;;;;;;;;;;1.72;96.54;99316.66;5094602;27;19915;-89
2021/12/18 03:33:30;;;;;;;;;;;;;;;1.72;97.09;99321.09;5115538;27;19915;-92
2021/12/18 03:35:56;;;;;;;;;;;;;;;1.70;96.65;99323.97;5096224;28;20397;-92
2021/12/18 03:38:22;;;;;;;;;;;;;;;1.71;96.93;99325.56;5097904;28;19919;-89
2021/12/18 03:40:47;;;;;;;;;;;;;;;1.71;96.57;99346.66;5093758;28;20007;-86
2021/12/18 03:43:13;;;;;;;;;;;;;;;1.63;96.79;99346.91;5093749;28;19916;-85
2021/12/18 03:45:38;;;;;;;;;;;;;;;1.54;97.00;99356.88;5097674;28;19920;-83
2021/12/18 03:48:03;;;;;;;;;;;;;;;1.50;97.16;99360.13;5113864;27;20378;-83
2021/12/18 03:50:29;;;;;;;;;;;;;;;1.48;96.97;99357.72;5108070;28;19920;-84
2021/12/18 03:52:55;;;;;;;;;;;;;;;1.46;97.04;99367.66;5094480;28;19973;-83
2021/12/18 03:55:21;;;;;;;;;;;;;;;1.42;96.87;99364.63;5106487;28;19919;-81
2021/12/18 03:57:46;;;;;;;;;;;;;;;1.41;97.28;99363.00;5116564;28;20006;-83
2021/12/18 04:00:13;;;;;;;;;;;;;;;1.39;96.28;99359.78;5104832;28;19926;-84
2021/12/18 04:02:38;;;;;;;;;;;;;;;1.37;96.46;99369.72;5109845;27;19926;-87
2021/12/18 04:05:04;;;;;;;;;;;;;;;1.35;96.85;99363.03;5097582;28;19919;-85
2021/12/18 04:07:29;;;;;;;;;;;;;;;1.27;95.86;99358.81;5098532;28;20412;-87
2021/12/18 04:09:55;;;;;;;;;;;;;;;1.26;96.84;99371.16;5103455;28;20386;-86
2021/12/18 04:12:20;;;;;;;;;;;;;;;1.20;97.11;99374.63;5099950;28;19920;-88
2021/12/18 04:14:45;;;;;;;;;;;;;;;1.20;96.97;99373.81;5106070;28;19998;-89
2021/12/18 04:17:11;;;;;;;;;;;;;;;1.14;96.96;99379.91;5105595;28;20378;-85
2021/12/18 04:19:37;;;;;;;;;;;;;;;1.12;97.34;99374.84;5109792;28;20064;-85
2021/12/18 04:22:02;;;;;;;;;;;;;;;1.11;97.58;99366.13;5093063;28;19920;-86
2021/12/18 04:24:28;;;;;;;;;;;;;;;1.12;97.53;99374.84;5097299;28;19924;-82
2021/12/18 04:26:53;;;;;;;;;;;;;;;1.11;97.44;99370.56;5099128;28;19919;-90
2021/12/18 04:29:19;;;;;;;;;;;;;;;1.12;98.06;99369.56;5096117;28;20003;-84
2021/12/18 04:31:44;;;;;;;;;;;;;;;1.16;98.42;99369.97;5094336;28;19923;-84
2021/12/18 04:34:09;;;;;;;;;;;;;;;1.16;97.41;99376.06;5104731;28;19915;-87
2021/12/18 04:36:35;;;;;;;;;;;;;;;1.16;97.83;99369.97;5093731;28;19959;-87
2021/12/18 04:39:00;;;;;;;;;;;;;;;1.16;97.32;99369.97;5102944;28;19927;-85
2021/12/18 04:42:11;;;;;;;;;;;;;;;1.19;97.45;99374.84;5113547;28;20355;-86
2021/12/18 04:44:11;;;;;;;;;;;;;;;1.21;97.66;99375.41;5110013;28;20003;-90
2021/12/18 04:46:37;;;;;;;;;;;;;;;1.17;97.33;99379.50;5094768;28;20010;-86
2021/12/18 04:49:03;;;;;;;;;;;;;;;1.16;97.32;99378.69;5093110;28;19923;-85
2021/12/18 04:51:28;;;;;;;;;;;;;;;1.17;97.88;99390.81;5092932;28;19920;-84
2021/12/18 04:53:53;;;;;;;;;;;;;;;1.18;98.16;99386.38;5103174;28;20478;-85
2021/12/18 04:56:19;;;;;;;;;;;;;;;1.18;97.84;99389.00;5093146;28;20326;-84
2021/12/18 04:58:44;;;;;;;;;;;;;;;1.20;98.40;99387.78;5094037;28;20417;-87
2021/12/18 05:01:09;;;;;;;;;;;;;;;1.24;98.09;99388.19;5095361;28;20043;-88
2021/12/18 05:03:37;;;;;;;;;;;;;;;1.27;97.57;99393.06;5101968;28;19955;-85
2021/12/18 05:06:03;;;;;;;;;;;;;;;1.28;97.96;99392.03;5103369;28;19920;-84
2021/12/18 05:08:29;;;;;;;;;;;;;;;1.31;97.75;99393.44;5093256;28;19942;-84
2021/12/18 05:10:54;;;;;;;;;;;;;;;1.33;98.22;99397.50;5092638;28;20374;-86
2021/12/18 05:13:19;;;;;;;;;;;;;;;1.36;98.09;99404.19;5097577;27;19920;-85
2021/12/18 05:15:45;;;;;;;;;;;;;;;1.40;97.66;99406.22;5100850;28;19927;-89
2021/12/18 05:18:10;;;;;;;;;;;;;;;1.45;97.85;99408.19;5097014;28;20378;-88
2021/12/18 05:20:35;;;;;;;;;;;;;;;1.47;97.57;99406.19;5114266;28;20048;-90
2021/12/18 05:23:01;;;;;;;;;;;;;;;1.52;97.44;99411.63;5115096;28;19916;-91
2021/12/18 05:25:31;;;;;;;;;;;;;;;1.56;96.93;99412.84;5105581;28;19920;-94
2021/12/18 05:28:23;;;;;;;;;;;;;;;1.61;97.35;99425.38;5117794;28;19912;-94
2021/12/18 05:31:27;;;;;;;;;;;;;;;1.67;96.88;99421.13;5081259;28;19912;-94
2021/12/18 05:34:20;;;;;;;;;;;;;;;1.72;96.28;99426.56;5103217;27;19938;-87
2021/12/18 05:37:15;;;;;;;;;;;;;;;1.75;96.78;99428.81;5103186;28;19958;-90
2021/12/18 05:39:36;;;;;;;;;;;;;;;1.79;96.26;99430.00;5126993;27;19911;-91
2021/12/18 05:42:02;;;;;;;;;;;;;;;1.81;95.66;99433.25;5117110;27;20385;-90
2021/12/18 05:44:27;;;;;;;;;;;;;;;1.83;95.89;99431.22;5110664;27;19923;-92
2021/12/18 05:46:53;;;;;;;;;;;;;;;1.84;96.01;99434.66;5101169;28;19959;-86
2021/12/18 05:49:18;;;;;;;;;;;;;;;1.84;95.79;99434.66;5098042;28;19927;-92
2021/12/18 05:51:48;;;;;;;;;;;;;;;1.85;96.08;99431.00;5098258;28;19911;-91
2021/12/18 05:54:14;;;;;;;;;;;;;;;1.87;95.67;99434.25;5094938;28;20379;-84
2021/12/18 05:56:39;;;;;;;;;;;;;;;1.86;95.60;99435.25;5094520;28;19924;-81
2021/12/18 05:59:05;;;;;;;;;;;;;;;1.86;95.64;99445.81;5095336;28;19923;-83
2021/12/18 06:01:30;;;;;;;;;;;;;;;1.86;95.64;99443.16;5105456;28;19923;-83
2021/12/18 06:03:56;;;;;;;;;;;;;;;1.86;95.52;99435.25;5095129;28;19935;-83
2021/12/18 06:06:22;;;;;;;;;;;;;;;1.86;95.57;99443.97;5125763;27;19920;-84
2021/12/18 06:08:48;;;;;;;;;;;;;;;1.86;96.00;99443.97;5091082;28;19931;-82
2021/12/18 06:11:15;;;;;;;;;;;;;;;1.88;95.95;99441.94;5092111;28;19929;-85
2021/12/18 06:13:45;;;;;;;;;;;;;;;1.88;95.35;99447.22;5092828;28;19924;-91
2021/12/18 06:16:11;;;;;;;;;;;;;;;1.89;95.58;99446.19;5077879;28;19923;-88
2021/12/18 06:18:40;;;;;;;;;;;;;;;1.88;95.34;99446.38;5094012;28;19916;-84
2021/12/18 06:21:05;;;;;;;;;;;;;;;1.90;95.29;99453.09;5091620;28;19912;-88
2021/12/18 06:23:30;;;;;;;;;;;;;;;1.94;95.50;99452.66;5091905;28;19912;-87
2021/12/18 06:25:56;;;;;;;;;;;;;;;1.95;95.73;99457.72;5091526;28;19927;-84
2021/12/18 06:28:22;;;;;;;;;;;;;;;1.96;95.16;99464.63;5108219;28;19920;-84
2021/12/18 06:30:49;;;;;;;;;;;;;;;1.99;95.39;99460.75;5091829;28;19924;-84
2021/12/18 06:33:14;;;;;;;;;;;;;;;2.03;95.59;99460.13;5091744;28;20315;-84
2021/12/18 06:35:39;;;;;;;;;;;;;;;2.06;95.27;99458.91;5106726;28;19919;-85
2021/12/18 06:38:05;;;;;;;;;;;;;;;2.08;95.42;99457.66;5112049;28;19923;-84
2021/12/18 06:40:30;;;;;;;;;;;;;;;2.08;94.52;99456.88;5111813;28;19926;-80
2021/12/18 06:42:55;;;;;;;;;;;;;;;2.10;94.56;99464.56;5103072;28;19927;-84
2021/12/18 06:45:20;;;;;;;;;;;;;;;2.12;94.90;99468.63;5105185;28;19926;-86
2021/12/18 06:47:46;;;;;;;;;;;;;;;2.18;95.12;99469.63;5102407;28;20375;-87
2021/12/18 06:50:11;;;;;;;;;;;;;;;2.22;94.99;99466.34;5092990;28;19922;-88
2021/12/18 06:52:36;;;;;;;;;;;;;;;2.29;95.13;99481.34;5112546;28;19924;-87
2021/12/18 06:55:03;;;;;;;;;;;;;;;2.32;94.73;99487.00;5112009;28;20002;-87
2021/12/18 06:57:28;;;;;;;;;;;;;;;2.35;94.91;99496.34;5109052;28;20398;-87
2021/12/18 06:59:53;;;;;;;;;;;;;;;2.36;94.35;99498.75;5112091;28;20011;-85
2021/12/18 07:02:18;;;;;;;;;;;;;;;2.37;94.68;99499.59;5100724;28;19923;-84
2021/12/18 07:04:44;;;;;;;;;;;;;;;2.35;94.25;99502.41;5093516;28;19965;-84
2021/12/18 07:07:09;;;;;;;;;;;;;;;2.34;94.41;99511.34;5090601;28;19920;-84
2021/12/18 07:09:34;;;;;;;;;;;;;;;2.34;94.78;99511.34;5090393;28;20007;-81
2021/12/18 07:12:00;;;;;;;;;;;;;;;2.34;94.37;99511.34;5090809;28;19927;-83
2021/12/18 07:14:26;;;;;;;;;;;;;;;2.35;94.44;99515.63;5078932;28;19919;-83
2021/12/18 07:16:51;;;;;;;;;;;;;;;2.36;94.76;99517.22;5090423;28;19941;-84
2021/12/18 07:19:16;;;;;;;;;;;;;;;2.33;94.41;99517.66;5099228;28;19938;-85
2021/12/18 07:21:42;;;;;;;;;;;;;;;2.33;94.93;99522.94;5093847;28;20299;-84
2021/12/18 07:24:07;;;;;;;;;;;;;;;2.35;94.47;99522.72;5079773;28;20003;-82
2021/12/18 07:26:33;;;;;;;;;;;;;;;2.33;94.19;99527.41;5095934;28;19934;-85
2021/12/18 07:28:59;;;;;;;;;;;;;;;2.33;94.03;99527.41;5096163;28;20041;-86
2021/12/18 07:31:25;;;;;;;;;;;;;;;2.30;94.04;99535.75;5090647;28;19928;-88
2021/12/18 07:33:50;;;;;;;;;;;;;;;2.30;94.60;99533.13;5090014;28;19920;-87
2021/12/18 07:36:15;;;;;;;;;;;;;;;2.28;94.20;99529.88;5089947;28;20314;-84
2021/12/18 07:38:41;;;;;;;;;;;;;;;2.27;94.68;99537.00;5090406;28;20318;-84
2021/12/18 07:41:06;;;;;;;;;;;;;;;2.28;93.93;99543.06;5089321;28;19927;-86
2021/12/18 07:43:31;;;;;;;;;;;;;;;2.22;93.59;99547.34;5089930;28;20415;-84
2021/12/18 07:45:57;;;;;;;;;;;;;;;2.21;94.16;99553.63;5090592;28;19931;-81
2021/12/18 07:48:22;;;;;;;;;;;;;;;2.14;94.86;99553.66;5090272;28;19977;-84
2021/12/18 07:50:47;;;;;;;;;;;;;;;2.15;94.50;99557.09;5090285;28;20280;-86
2021/12/18 07:53:12;;;;;;;;;;;;;;;2.10;94.53;99564.84;5110541;28;20390;-84
2021/12/18 07:55:38;;;;;;;;;;;;;;;2.11;95.00;99572.53;5093248;28;19952;-85
2021/12/18 07:58:04;;;;;;;;;;;;;;;2.11;95.27;99567.25;5090069;28;20015;-85
2021/12/18 08:00:29;;;;;;;;;;;;;;;2.12;94.99;99573.38;5091470;28;19920;-82
2021/12/18 08:02:54;;;;;;;;;;;;;;;2.13;95.04;99575.78;5102137;28;19927;-82
2021/12/18 08:05:20;;;;;;;;;;;;;;;2.15;95.18;99567.66;5113492;27;20381;-82
2021/12/18 08:07:45;;;;;;;;;;;;;;;2.21;95.75;99577.38;5108082;28;19924;-80
2021/12/18 08:10:11;;;;;;;;;;;;;;;2.23;95.02;99573.53;5127137;28;19920;-82
2021/12/18 08:12:36;;;;;;;;;;;;;;;2.29;96.05;99584.28;5093523;28;19972;-82
2021/12/18 08:15:03;;;;;;;;;;;;;;;2.29;94.91;99584.28;5093680;28;19963;-83
2021/12/18 08:17:29;;;;;;;;;;;;;;;2.35;96.11;99589.53;5111918;28;19915;-89
2021/12/18 08:19:54;;;;;;;;;;;;;;;2.41;96.10;99590.53;5066463;28;19924;-82
2021/12/18 08:22:19;;;;;;;;;;;;;;;2.45;95.67;99593.56;5092854;28;19912;-82
2021/12/18 08:24:45;;;;;;;;;;;;;;;2.52;96.17;99594.34;5093475;28;19954;-78
2021/12/18 08:27:10;;;;;;;;;;;;;;;2.56;95.67;99595.53;5093162;28;19974;-76
2021/12/18 08:29:36;;;;;;;;;;;;;;;2.62;95.89;99592.06;5093952;28;19920;-84
2021/12/18 08:32:02;;;;;;;;;;;;;;;2.66;95.05;99595.91;5107872;28;19939;-82
2021/12/18 08:34:27;;;;;;;;;;;;;;;2.74;94.91;99601.97;5103336;28;19930;-90
2021/12/18 08:36:53;;;;;;;;;;;;;;;2.75;94.91;99596.47;5095427;28;19920;-83
2021/12/18 08:39:18;;;;;;;;;;;;;;;2.81;94.77;99592.19;5095199;28;19928;-81
2021/12/18 08:41:45;;;;;;;;;;;;;;;2.81;94.26;99581.63;5095576;28;19915;-85
2021/12/18 08:44:10;;;;;;;;;;;;;;;2.85;94.31;99591.53;5093818;28;20286;-80
2021/12/18 08:46:36;;;;;;;;;;;;;;;2.90;94.48;99600.69;5093266;28;19920;-88
2021/12/18 08:49:02;;;;;;;;;;;;;;;2.94;94.36;99592.13;5096397;28;19958;-90
2021/12/18 08:51:27;;;;;;;;;;;;;;;2.99;94.69;99584.38;5101185;28;19984;-86
2021/12/18 08:53:52;;;;;;;;;;;;;;;3.09;95.17;99586.53;5098920;28;19937;-90
2021/12/18 08:56:18;;;;;;;;;;;;;;;3.18;94.97;99587.88;5098128;28;20010;-79
2021/12/18 08:58:43;;;;;;;;;;;;;;;3.24;95.35;99591.53;5097014;27;19924;-82
2021/12/18 09:01:08;;;;;;;;;;;;;;;3.30;94.82;99585.38;5096966;28;20313;-82
2021/12/18 09:03:34;;;;;;;;;;;;;;;3.36;94.54;99589.00;5097306;28;19938;-84
2021/12/18 09:05:59;;;;;;;;;;;;;;;3.41;94.07;99585.72;5096928;28;19926;-88
2021/12/18 09:08:25;;;;;;;;;;;;;;;3.45;94.05;99586.91;5104104;27;20382;-84
2021/12/18 09:10:50;;;;;;;;;;;;;;;3.47;92.94;99590.94;5099040;28;19920;-82
2021/12/18 09:13:16;;;;;;;;;;;;;;;3.52;93.77;99574.44;5096508;28;19922;-75
2021/12/18 09:15:41;;;;;;;;;;;;;;;3.57;93.75;99576.44;5097063;28;20030;-83
2021/12/18 09:18:07;;;;;;;;;;;;;;;3.61;93.56;99577.59;5096018;28;19924;-79
2021/12/18 09:20:32;;;;;;;;;;;;;;;3.66;93.47;99561.88;5096576;28;20010;-79
2021/12/18 09:23:00;;;;;;;;;;;;;;;3.69;93.51;99572.84;5096769;28;20445;-79
2021/12/18 09:25:25;;;;;;;;;;;;;;;3.71;92.58;99567.34;5096018;28;19924;-83
2021/12/18 09:27:50;;;;;;;;;;;;;;;3.74;93.31;99566.91;5096192;28;19920;-83
2021/12/18 09:30:16;;;;;;;;;;;;;;;3.77;93.10;99565.66;5103193;27;19915;-77
2021/12/18 09:32:41;;;;;;;;;;;;;;;3.83;92.43;99570.06;5116040;27;19919;-77
2021/12/18 09:35:08;;;;;;;;;;;;;;;3.88;92.80;99564.94;5102158;28;20696;-78
2021/12/18 09:37:33;;;;;;;;;;;;;;;3.92;92.33;99568.78;5098949;28;20012;-79
2021/12/18 09:39:58;;;;;;;;;;;;;;;3.96;91.71;99574.44;5102821;28;19955;-80
2021/12/18 09:42:24;;;;;;;;;;;;;;;4.01;91.91;99569.28;5113856;28;19923;-80
2021/12/18 09:44:49;;;;;;;;;;;;;;;4.04;91.17;99576.81;5096163;28;19927;-80
2021/12/18 09:47:15;;;;;;;;;;;;;;;4.10;91.43;99569.81;5095802;28;19930;-80
2021/12/18 09:49:41;;;;;;;;;;;;;;;4.11;90.89;99577.53;5101633;27;19928;-75
2021/12/18 09:52:06;;;;;;;;;;;;;;;4.20;91.56;99582.53;5108479;28;19949;-75
2021/12/18 09:54:32;;;;;;;;;;;;;;;4.31;91.45;99576.53;5099133;28;19916;-74
2021/12/18 09:56:57;;;;;;;;;;;;;;;4.40;90.58;99579.66;5113406;28;20018;-80
2021/12/18 09:59:23;;;;;;;;;;;;;;;4.46;89.54;99571.63;5095638;28;19947;-79
2021/12/18 10:01:48;;;;;;;;;;;;;;;4.53;89.66;99571.56;5096042;28;20310;-86
2021/12/18 10:04:28;;;;;;;;;;;;;;;4.55;89.43;99563.38;5096944;27;19916;-85
2021/12/18 10:06:53;;;;;;;;;;;;;;;4.55;88.81;99558.09;5112462;28;19919;-86
2021/12/18 10:09:21;;;;;;;;;;;;;;;4.58;89.08;99561.09;5130008;27;19923;-85
2021/12/18 10:11:52;;;;;;;;;;;;;;;4.59;88.69;99553.94;5125358;27;20375;-83
2021/12/18 10:14:18;;;;;;;;;;;;;;;4.59;88.03;99549.47;5095342;28;19986;-86
2021/12/18 10:16:45;;;;;;;;;;;;;;;4.59;87.06;99546.81;5110810;27;19923;-86
2021/12/18 10:19:22;;;;;;;;;;;;;;;4.58;87.14;99544.41;5103814;28;19927;-74
2021/12/18 10:21:58;;;;;;;;;;;;;;;4.54;86.71;99538.75;5113547;27;19931;-76
2021/12/18 10:24:24;;;;;;;;;;;;;;;4.48;86.76;99544.94;5100007;28;19930;-73
2021/12/18 10:26:49;;;;;;;;;;;;;;;4.43;86.23;99539.50;5094955;28;20416;-72
2021/12/18 10:29:41;;;;;;;;;;;;;;;4.40;87.01;99535.44;5112671;28;19920;-73
2021/12/18 10:32:08;;;;;;;;;;;;;;;4.39;86.48;99539.13;5116247;27;19997;-76
2021/12/18 10:34:34;;;;;;;;;;;;;;;4.33;85.70;99538.19;5120526;27;19927;-76
2021/12/18 10:37:08;;;;;;;;;;;;;;;4.38;87.19;99536.69;5094620;28;19920;-77
2021/12/18 10:39:34;;;;;;;;;;;;;;;4.40;84.28;99535.44;5094292;28;19923;-75
2021/12/18 10:42:18;;;;;;;;;;;;;;;4.40;81.12;99527.50;5122308;27;19919;-75
2021/12/18 10:44:59;;;;;;;;;;;;;;;4.39;77.81;99535.69;5111878;28;19923;-74
2021/12/18 10:47:24;;;;;;;;;;;;;;;4.39;78.38;99533.03;5092920;28;19951;-73
2021/12/18 10:49:50;;;;;;;;;;;;;;;4.33;77.13;99540.84;5113096;27;19919;-74
2021/12/18 10:52:16;;;;;;;;;;;;;;;4.28;75.89;99543.31;5129721;27;19920;-74
2021/12/18 10:54:46;;;;;;;;;;;;;;;4.23;77.04;99543.19;5101610;28;19920;-73
2021/12/18 10:57:20;;;;;;;;;;;;;;;4.19;77.09;99547.31;5114265;27;19977;-74
2021/12/18 10:59:48;;;;;;;;;;;;;;;4.10;75.64;99546.81;5118049;27;19927;-76
2021/12/18 11:02:14;;;;;;;;;;;;;;;4.04;75.76;99541.56;5106965;27;19920;-70
2021/12/18 11:04:40;;;;;;;;;;;;;;;3.98;73.64;99553.88;5121222;27;19976;-72
2021/12/18 11:07:41;;;;;;;;;;;;;;;3.94;74.43;99542.09;5118016;27;19924;-72
2021/12/18 11:15:48;;;;;;;;;;;;;;;3.90;75.78;99541.72;5129795;27;19931;-73
2021/12/18 11:18:13;;;;;;;;;;;;;;;3.95;76.95;99547.16;5123658;27;19919;-72
2021/12/18 11:20:40;;;;;;;;;;;;;;;3.95;75.49;99535.78;5124790;27;20386;-72
2021/12/18 11:23:05;;;;;;;;;;;;;;;3.95;74.22;99549.00;5112363;27;20382;-71
2021/12/18 11:25:31;;;;;;;;;;;;;;;3.96;73.85;99547.97;5099342;28;19916;-71
2021/12/18 11:27:56;;;;;;;;;;;;;;;3.94;70.30;99556.16;5112443;28;19922;-71
2021/12/18 11:30:22;;;;;;;;;;;;;;;3.95;69.50;99549.00;5111942;28;19951;-71
2021/12/18 11:32:54;;;;;;;;;;;;;;;3.95;70.29;99544.50;5112294;28;19920;-71
2021/12/18 11:35:20;;;;;;;;;;;;;;;3.98;71.31;99543.28;5112013;28;19916;-71
2021/12/18 11:37:46;;;;;;;;;;;;;;;3.97;70.84;99539.81;5112298;28;19916;-71
2021/12/18 11:40:15;;;;;;;;;;;;;;;3.97;70.06;99553.03;5112022;28;19915;-71
2021/12/18 11:42:41;;;;;;;;;;;;;;;3.98;70.62;99546.72;5110861;28;20374;-71
2021/12/18 11:45:07;;;;;;;;;;;;;;;4.01;70.73;99551.56;5112261;28;19922;-71
2021/12/18 11:47:37;;;;;;;;;;;;;;;4.03;68.47;99550.53;5111657;28;19922;-71
2021/12/18 11:50:07;;;;;;;;;;;;;;;4.04;68.39;99553.00;5111844;28;20344;-73
2021/12/18 11:52:51;;;;;;;;;;;;;;;4.06;68.20;99556.19;5093491;28;19955;-73
2021/12/18 11:55:17;;;;;;;;;;;;;;;4.09;68.64;99566.38;5111776;28;19916;-71
2021/12/18 11:57:44;;;;;;;;;;;;;;;4.02;67.04;99560.31;5111404;28;19973;-71
2021/12/18 12:00:15;;;;;;;;;;;;;;;4.03;67.07;99566.41;5111301;28;19916;-70
2021/12/18 12:03:06;;;;;;;;;;;;;;;3.94;66.04;99555.31;5111623;28;19916;-72
2021/12/18 12:05:44;;;;;;;;;;;;;;;3.94;67.24;99565.91;5092629;28;20426;-72
2021/12/18 12:08:19;;;;;;;;;;;;;;;3.95;67.90;99556.94;5111644;28;20306;-71
2021/12/18 12:11:03;;;;;;;;;;;;;;;3.97;68.26;99560.19;5093646;28;19915;-72
2021/12/18 12:13:54;;;;;;;;;;;;;;;3.96;67.53;99559.34;5111700;28;19915;-71
2021/12/18 12:16:40;;;;;;;;;;;;;;;4.00;69.64;99555.25;5110333;28;20369;-71
2021/12/18 12:19:06;;;;;;;;;;;;;;;4.01;67.68;99567.44;5110115;28;19916;-72
2021/12/18 12:21:41;;;;;;;;;;;;;;;3.96;69.04;99569.94;5111833;28;20446;-71
2021/12/18 12:24:07;;;;;;;;;;;;;;;3.87;69.86;99565.16;5116075;28;19916;-71
2021/12/18 12:26:33;;;;;;;;;;;;;;;3.74;70.02;99579.34;5115753;28;19915;-73
2021/12/18 12:28:58;;;;;;;;;;;;;;;3.69;70.52;99578.13;5115668;28;19916;-73
2021/12/18 12:31:24;;;;;;;;;;;;;;;3.66;71.53;99573.28;5115384;28;19916;-72
2021/12/18 12:33:50;;;;;;;;;;;;;;;3.59;71.49;99577.00;5115578;28;19988;-71
2021/12/18 12:36:25;;;;;;;;;;;;;;;3.57;71.87;99573.78;5115583;28;19915;-72
2021/12/18 12:39:01;;;;;;;;;;;;;;;3.53;71.29;99578.69;5116076;28;19922;-72
2021/12/18 12:41:31;;;;;;;;;;;;;;;3.49;70.98;99591.53;5115440;28;19963;-72
2021/12/18 12:43:59;;;;;;;;;;;;;;;3.44;71.07;99577.34;5115705;28;19923;-72
2021/12/18 12:46:25;;;;;;;;;;;;;;;3.41;71.10;99591.00;5096848;28;19954;-72
2021/12/18 12:48:57;;;;;;;;;;;;;;;3.45;72.43;99576.31;5097209;28;20366;-72
2021/12/18 12:51:23;;;;;;;;;;;;;;;3.43;70.28;99568.59;5115267;28;19916;-72
2021/12/18 12:53:52;;;;;;;;;;;;;;;3.41;70.35;99568.00;5115734;28;20009;-71
2021/12/18 12:56:20;;;;;;;;;;;;;;;3.45;70.47;99586.91;5115230;28;19920;-71
2021/12/18 12:58:45;;;;;;;;;;;;;;;3.42;69.89;99576.72;5115415;28;19915;-72
2021/12/18 13:01:11;;;;;;;;;;;;;;;3.42;69.10;99584.66;5096874;28;20401;-73
2021/12/18 13:03:47;;;;;;;;;;;;;;;3.39;68.78;99577.19;5096779;28;19923;-72
2021/12/18 13:06:13;;;;;;;;;;;;;;;3.33;67.80;99587.59;5096746;28;20390;-73
2021/12/18 13:08:41;;;;;;;;;;;;;;;3.32;67.93;99591.25;5115503;28;19916;-71
2021/12/18 13:11:07;;;;;;;;;;;;;;;3.30;67.67;99593.31;5115016;28;20366;-71
2021/12/18 13:13:34;;;;;;;;;;;;;;;3.30;68.12;99595.16;5114923;28;20006;-71
2021/12/18 13:15:59;;;;;;;;;;;;;;;3.30;67.70;99592.50;5114933;28;20321;-71
2021/12/18 13:18:29;;;;;;;;;;;;;;;3.27;67.32;99599.03;5115088;28;20010;-71
2021/12/18 13:20:56;;;;;;;;;;;;;;;3.25;66.66;99590.50;5114984;28;20025;-71
2021/12/18 13:23:38;;;;;;;;;;;;;;;3.26;67.71;99605.34;5115097;28;20523;-71
2021/12/18 13:26:05;;;;;;;;;;;;;;;3.28;69.29;99603.28;5115135;28;19919;-72
2021/12/18 13:28:30;;;;;;;;;;;;;;;3.27;68.29;99601.69;5096369;28;19926;-72
2021/12/18 13:30:56;;;;;;;;;;;;;;;3.26;67.58;99596.59;5096515;28;19916;-71
2021/12/18 13:33:29;;;;;;;;;;;;;;;3.26;66.70;99604.50;5113794;28;19955;-71
2021/12/18 13:35:56;;;;;;;;;;;;;;;3.26;66.86;99607.97;5114660;28;20014;-73
2021/12/18 13:38:23;;;;;;;;;;;;;;;3.27;68.29;99606.13;5114338;28;19923;-73
2021/12/18 13:40:49;;;;;;;;;;;;;;;3.27;68.08;99603.50;5114547;28;19919;-73
2021/12/18 13:43:20;;;;;;;;;;;;;;;3.28;68.73;99603.28;5114576;28;20007;-71
2021/12/18 13:45:58;;;;;;;;;;;;;;;3.28;68.90;99605.91;5114815;28;20057;-72
2021/12/18 13:48:25;;;;;;;;;;;;;;;3.32;69.54;99609.78;5114382;28;19973;-71
2021/12/18 13:51:01;;;;;;;;;;;;;;;3.33;69.21;99605.28;5114411;28;19916;-72
2021/12/18 13:53:26;;;;;;;;;;;;;;;3.37;69.42;99611.78;5114528;28;20418;-73